sensor_id;sensor_type;location;lat;lon;timestamp;temperature;humidity
28253;DHT22;15515;45.588;5.276;2022-07-15T06:15:33;25.20;69.70
28253;DHT22;15515;45.588;5.276;2022-07-15T06:19:11;25.20;69.40
28253;DHT22;15515;45.588;5.276;2022-07-15T06:21:38;25.70;72.60
28253;DHT22;15515;45.588;5.276;2022-07-15T06:24:05;25.50;69.30
28253;DHT22;15515;45.588;5.276;2022-07-15T06:26:32;25.50;68.70
28253;DHT22;15515;45.588;5.276;2022-07-15T06:28:59;25.50;68.60
28253;DHT22;15515;45.588;5.276;2022-07-15T06:31:27;25.50;68.00
28253;DHT22;15515;45.588;5.276;2022-07-15T06:33:54;25.50;67.70
28253;DHT22;15515;45.588;5.276;2022-07-15T06:36:21;25.40;68.20
28253;DHT22;15515;45.588;5.276;2022-07-15T06:38:48;25.40;68.30
28253;DHT22;15515;45.588;5.276;2022-07-15T06:41:17;25.50;68.30
28253;DHT22;15515;45.588;5.276;2022-07-15T06:43:48;25.30;68.80
28253;DHT22;15515;45.588;5.276;2022-07-15T06:46:26;25.20;69.30
28253;DHT22;15515;45.588;5.276;2022-07-15T06:48:53;25.10;69.50
28253;DHT22;15515;45.588;5.276;2022-07-15T06:51:20;25.30;70.60
28253;DHT22;15515;45.588;5.276;2022-07-15T06:53:48;25.40;70.10
28253;DHT22;15515;45.588;5.276;2022-07-15T06:56:15;25.50;69.70
28253;DHT22;15515;45.588;5.276;2022-07-15T06:58:42;25.60;69.90
28253;DHT22;15515;45.588;5.276;2022-07-15T07:01:09;25.70;69.70
28253;DHT22;15515;45.588;5.276;2022-07-15T07:03:37;25.80;69.60
28253;DHT22;15515;45.588;5.276;2022-07-15T07:06:21;25.80;69.40
28253;DHT22;15515;45.588;5.276;2022-07-15T07:08:49;25.90;69.40
28253;DHT22;15515;45.588;5.276;2022-07-15T07:11:16;25.90;68.80
28253;DHT22;15515;45.588;5.276;2022-07-15T07:13:44;26.00;69.30
28253;DHT22;15515;45.588;5.276;2022-07-15T07:16:11;26.10;68.90
28253;DHT22;15515;45.588;5.276;2022-07-15T07:18:39;26.20;67.90
28253;DHT22;15515;45.588;5.276;2022-07-15T07:21:07;26.20;67.60
28253;DHT22;15515;45.588;5.276;2022-07-15T07:23:33;26.30;67.70
28253;DHT22;15515;45.588;5.276;2022-07-15T07:26:01;26.30;67.70
28253;DHT22;15515;45.588;5.276;2022-07-15T07:28:29;26.50;67.70
28253;DHT22;15515;45.588;5.276;2022-07-15T07:30:57;26.70;67.00
28253;DHT22;15515;45.588;5.276;2022-07-15T07:33:24;26.70;67.00
28253;DHT22;15515;45.588;5.276;2022-07-15T07:35:51;26.70;67.20
28253;DHT22;15515;45.588;5.276;2022-07-15T07:38:19;26.60;66.60
28253;DHT22;15515;45.588;5.276;2022-07-15T07:40:46;26.70;66.90
28253;DHT22;15515;45.588;5.276;2022-07-15T07:43:17;26.90;66.60
28253;DHT22;15515;45.588;5.276;2022-07-15T07:45:46;27.00;65.80
28253;DHT22;15515;45.588;5.276;2022-07-15T07:48:13;27.10;65.60
28253;DHT22;15515;45.588;5.276;2022-07-15T07:50:41;27.20;64.90
28253;DHT22;15515;45.588;5.276;2022-07-15T07:53:08;27.20;65.40
28253;DHT22;15515;45.588;5.276;2022-07-15T07:55:37;27.10;65.10
28253;DHT22;15515;45.588;5.276;2022-07-15T07:58:05;27.30;65.20
28253;DHT22;15515;45.588;5.276;2022-07-15T08:00:33;27.20;65.00
28253;DHT22;15515;45.588;5.276;2022-07-15T08:03:01;27.20;65.00
28253;DHT22;15515;45.588;5.276;2022-07-15T08:05:28;27.30;64.80
28253;DHT22;15515;45.588;5.276;2022-07-15T08:10:41;27.70;63.90
28253;DHT22;15515;45.588;5.276;2022-07-15T08:13:12;27.90;63.60
28253;DHT22;15515;45.588;5.276;2022-07-15T08:15:44;28.10;63.50
28253;DHT22;15515;45.588;5.276;2022-07-15T08:18:12;28.30;63.80
28253;DHT22;15515;45.588;5.276;2022-07-15T08:20:40;28.50;62.60
28253;DHT22;15515;45.588;5.276;2022-07-15T08:23:07;28.70;63.20
28253;DHT22;15515;45.588;5.276;2022-07-15T08:25:36;28.90;61.90
28253;DHT22;15515;45.588;5.276;2022-07-15T08:28:06;29.20;62.10
28253;DHT22;15515;45.588;5.276;2022-07-15T08:30:34;29.30;61.30
28253;DHT22;15515;45.588;5.276;2022-07-15T08:33:02;29.40;61.30
28253;DHT22;15515;45.588;5.276;2022-07-15T08:35:30;29.60;60.90
28253;DHT22;15515;45.588;5.276;2022-07-15T08:37:57;29.80;60.20
28253;DHT22;15515;45.588;5.276;2022-07-15T08:40:26;29.90;60.00
28253;DHT22;15515;45.588;5.276;2022-07-15T08:42:53;30.00;59.70
28253;DHT22;15515;45.588;5.276;2022-07-15T08:45:21;30.10;60.00
28253;DHT22;15515;45.588;5.276;2022-07-15T08:47:48;30.10;58.80
28253;DHT22;15515;45.588;5.276;2022-07-15T08:50:19;29.70;59.30
28253;DHT22;15515;45.588;5.276;2022-07-15T08:52:47;29.50;60.00
28253;DHT22;15515;45.588;5.276;2022-07-15T08:55:15;29.90;60.10
28253;DHT22;15515;45.588;5.276;2022-07-15T08:57:47;30.10;60.50
28253;DHT22;15515;45.588;5.276;2022-07-15T09:00:14;30.40;59.60
28253;DHT22;15515;45.588;5.276;2022-07-15T09:02:43;30.50;59.20
28253;DHT22;15515;45.588;5.276;2022-07-15T09:05:30;30.70;59.10
28253;DHT22;15515;45.588;5.276;2022-07-15T09:13:30;31.10;58.10
28253;DHT22;15515;45.588;5.276;2022-07-15T09:16:11;31.10;57.00
28253;DHT22;15515;45.588;5.276;2022-07-15T09:18:43;31.30;57.80
28253;DHT22;15515;45.588;5.276;2022-07-15T09:21:18;31.30;55.60
28253;DHT22;15515;45.588;5.276;2022-07-15T09:23:46;31.50;56.40
28253;DHT22;15515;45.588;5.276;2022-07-15T09:26:25;31.80;56.00
28253;DHT22;15515;45.588;5.276;2022-07-15T09:28:53;31.90;55.80
28253;DHT22;15515;45.588;5.276;2022-07-15T09:31:31;32.00;54.50
28253;DHT22;15515;45.588;5.276;2022-07-15T09:34:17;32.10;53.80
28253;DHT22;15515;45.588;5.276;2022-07-15T09:36:48;32.10;53.50
28253;DHT22;15515;45.588;5.276;2022-07-15T09:39:20;32.10;53.20
28253;DHT22;15515;45.588;5.276;2022-07-15T09:41:48;32.30;54.30
28253;DHT22;15515;45.588;5.276;2022-07-15T09:44:20;32.40;53.50
28253;DHT22;15515;45.588;5.276;2022-07-15T09:46:59;32.40;53.10
28253;DHT22;15515;45.588;5.276;2022-07-15T09:54:26;32.60;52.10
28253;DHT22;15515;45.588;5.276;2022-07-15T09:56:53;32.60;51.80
28253;DHT22;15515;45.588;5.276;2022-07-15T09:59:20;32.80;52.20
28253;DHT22;15515;45.588;5.276;2022-07-15T10:01:47;32.90;52.00
28253;DHT22;15515;45.588;5.276;2022-07-15T10:04:17;33.10;51.60
28253;DHT22;15515;45.588;5.276;2022-07-15T10:06:50;33.20;51.00
28253;DHT22;15515;45.588;5.276;2022-07-15T10:09:35;33.20;50.90
28253;DHT22;15515;45.588;5.276;2022-07-15T10:12:10;33.10;50.90
28253;DHT22;15515;45.588;5.276;2022-07-15T10:26:40;33.80;49.60
28253;DHT22;15515;45.588;5.276;2022-07-15T10:29:10;33.90;48.70
28253;DHT22;15515;45.588;5.276;2022-07-15T10:31:39;34.00;48.60
28253;DHT22;15515;45.588;5.276;2022-07-15T10:39:15;34.40;47.60
28253;DHT22;15515;45.588;5.276;2022-07-15T10:42:00;34.50;47.00
28253;DHT22;15515;45.588;5.276;2022-07-15T10:44:32;34.40;46.70
28253;DHT22;15515;45.588;5.276;2022-07-15T10:49:44;34.80;46.90
28253;DHT22;15515;45.588;5.276;2022-07-15T10:55:03;34.70;46.60
28253;DHT22;15515;45.588;5.276;2022-07-15T11:03:15;34.90;44.00
28253;DHT22;15515;45.588;5.276;2022-07-15T11:13:48;35.50;42.90
28253;DHT22;15515;45.588;5.276;2022-07-15T11:16:18;35.60;42.60
28253;DHT22;15515;45.588;5.276;2022-07-15T11:18:50;35.90;43.50
28253;DHT22;15515;45.588;5.276;2022-07-15T11:21:18;36.00;43.10
28253;DHT22;15515;45.588;5.276;2022-07-15T11:23:48;36.20;42.50
28253;DHT22;15515;45.588;5.276;2022-07-15T11:26:16;36.30;41.20
28253;DHT22;15515;45.588;5.276;2022-07-15T11:28:54;36.40;42.20
28253;DHT22;15515;45.588;5.276;2022-07-15T11:31:23;36.50;41.90
28253;DHT22;15515;45.588;5.276;2022-07-15T11:33:54;36.70;40.80
28253;DHT22;15515;45.588;5.276;2022-07-15T11:36:23;36.70;40.40
28253;DHT22;15515;45.588;5.276;2022-07-15T11:38:51;36.90;39.90
28253;DHT22;15515;45.588;5.276;2022-07-15T11:41:19;36.90;40.20
28253;DHT22;15515;45.588;5.276;2022-07-15T11:44:07;37.00;40.60
28253;DHT22;15515;45.588;5.276;2022-07-15T11:46:54;36.90;40.50
28253;DHT22;15515;45.588;5.276;2022-07-15T11:49:38;37.00;39.70
28253;DHT22;15515;45.588;5.276;2022-07-15T11:52:12;37.00;39.10
28253;DHT22;15515;45.588;5.276;2022-07-15T11:54:47;37.10;39.80
28253;DHT22;15515;45.588;5.276;2022-07-15T11:57:14;37.20;40.00
28253;DHT22;15515;45.588;5.276;2022-07-15T11:59:54;37.20;39.60
28253;DHT22;15515;45.588;5.276;2022-07-15T12:02:27;37.30;40.10
28253;DHT22;15515;45.588;5.276;2022-07-15T12:05:03;37.20;38.90
28253;DHT22;15515;45.588;5.276;2022-07-15T12:07:44;37.40;39.30
28253;DHT22;15515;45.588;5.276;2022-07-15T12:10:12;37.50;38.60
28253;DHT22;15515;45.588;5.276;2022-07-15T12:12:52;37.50;38.10
28253;DHT22;15515;45.588;5.276;2022-07-15T12:15:23;37.40;37.70
28253;DHT22;15515;45.588;5.276;2022-07-15T12:17:51;37.40;38.10
28253;DHT22;15515;45.588;5.276;2022-07-15T12:20:18;37.40;37.90
28253;DHT22;15515;45.588;5.276;2022-07-15T12:23:05;37.40;38.00
28253;DHT22;15515;45.588;5.276;2022-07-15T12:25:32;37.20;37.70
28253;DHT22;15515;45.588;5.276;2022-07-15T12:28:00;37.20;38.30
28253;DHT22;15515;45.588;5.276;2022-07-15T12:30:45;37.20;39.10
28253;DHT22;15515;45.588;5.276;2022-07-15T12:33:20;37.20;38.20
28253;DHT22;15515;45.588;5.276;2022-07-15T12:35:49;37.10;38.20
28253;DHT22;15515;45.588;5.276;2022-07-15T12:38:29;37.10;39.50
28253;DHT22;15515;45.588;5.276;2022-07-15T12:41:08;37.10;38.70
28253;DHT22;15515;45.588;5.276;2022-07-15T12:43:54;37.00;38.90
28253;DHT22;15515;45.588;5.276;2022-07-15T12:49:46;36.90;38.30
28253;DHT22;15515;45.588;5.276;2022-07-15T12:52:43;37.00;38.20
28253;DHT22;15515;45.588;5.276;2022-07-15T12:55:21;37.00;38.60
28253;DHT22;15515;45.588;5.276;2022-07-15T12:57:50;37.00;38.20
28253;DHT22;15515;45.588;5.276;2022-07-15T13:00:20;37.10;38.20
28253;DHT22;15515;45.588;5.276;2022-07-15T13:03:06;37.10;38.10
28253;DHT22;15515;45.588;5.276;2022-07-15T13:05:41;37.10;38.20
28253;DHT22;15515;45.588;5.276;2022-07-15T13:08:20;36.90;37.20
28253;DHT22;15515;45.588;5.276;2022-07-15T13:10:49;36.80;36.70
28253;DHT22;15515;45.588;5.276;2022-07-15T13:13:19;36.90;37.30
28253;DHT22;15515;45.588;5.276;2022-07-15T13:15:47;37.00;35.90
28253;DHT22;15515;45.588;5.276;2022-07-15T13:18:15;37.00;36.90
28253;DHT22;15515;45.588;5.276;2022-07-15T13:20:43;37.10;36.40
28253;DHT22;15515;45.588;5.276;2022-07-15T13:23:10;37.10;35.60
28253;DHT22;15515;45.588;5.276;2022-07-15T13:25:38;37.00;36.10
28253;DHT22;15515;45.588;5.276;2022-07-15T13:28:08;36.80;35.80
28253;DHT22;15515;45.588;5.276;2022-07-15T13:30:38;36.90;36.00
28253;DHT22;15515;45.588;5.276;2022-07-15T13:33:06;37.00;36.40
28253;DHT22;15515;45.588;5.276;2022-07-15T13:35:33;37.00;36.40
28253;DHT22;15515;45.588;5.276;2022-07-15T13:38:02;37.00;36.10
28253;DHT22;15515;45.588;5.276;2022-07-15T13:40:30;36.90;35.20
28253;DHT22;15515;45.588;5.276;2022-07-15T13:42:57;37.00;35.20
28253;DHT22;15515;45.588;5.276;2022-07-15T13:45:24;37.00;35.10
28253;DHT22;15515;45.588;5.276;2022-07-15T13:47:51;37.00;35.80
28253;DHT22;15515;45.588;5.276;2022-07-15T13:50:18;37.20;36.50
28253;DHT22;15515;45.588;5.276;2022-07-15T13:53:04;37.10;36.40
28253;DHT22;15515;45.588;5.276;2022-07-15T13:55:31;37.20;36.80
28253;DHT22;15515;45.588;5.276;2022-07-15T13:57:58;37.00;36.30
28253;DHT22;15515;45.588;5.276;2022-07-15T14:00:25;37.10;36.20
28253;DHT22;15515;45.588;5.276;2022-07-15T14:02:55;37.00;38.60
28253;DHT22;15515;45.588;5.276;2022-07-15T14:05:23;36.70;44.80
28253;DHT22;15515;45.588;5.276;2022-07-15T14:07:50;36.20;45.50
28253;DHT22;15515;45.588;5.276;2022-07-15T14:10:18;36.20;38.00
28253;DHT22;15515;45.588;5.276;2022-07-15T14:12:45;36.30;36.40
28253;DHT22;15515;45.588;5.276;2022-07-15T14:15:12;36.20;35.00
28253;DHT22;15515;45.588;5.276;2022-07-15T14:17:42;36.30;35.80
28253;DHT22;15515;45.588;5.276;2022-07-15T14:20:09;36.30;36.40
28253;DHT22;15515;45.588;5.276;2022-07-15T14:22:36;36.30;38.00
28253;DHT22;15515;45.588;5.276;2022-07-15T14:25:04;36.30;38.20
28253;DHT22;15515;45.588;5.276;2022-07-15T14:27:32;36.20;39.60
28253;DHT22;15515;45.588;5.276;2022-07-15T14:29:59;36.20;39.50
28253;DHT22;15515;45.588;5.276;2022-07-15T14:32:28;36.10;39.70
28253;DHT22;15515;45.588;5.276;2022-07-15T14:34:58;36.10;40.30
28253;DHT22;15515;45.588;5.276;2022-07-15T14:37:25;35.70;49.20
28253;DHT22;15515;45.588;5.276;2022-07-15T14:39:56;35.60;43.30
28253;DHT22;15515;45.588;5.276;2022-07-15T14:42:23;35.50;40.60
28253;DHT22;15515;45.588;5.276;2022-07-15T14:44:50;35.50;41.80
28253;DHT22;15515;45.588;5.276;2022-07-15T14:47:17;35.60;42.70
28253;DHT22;15515;45.588;5.276;2022-07-15T14:49:44;35.50;42.00
28253;DHT22;15515;45.588;5.276;2022-07-15T14:52:11;35.50;44.00
28253;DHT22;15515;45.588;5.276;2022-07-15T14:54:39;35.40;42.50
28253;DHT22;15515;45.588;5.276;2022-07-15T14:57:06;35.30;41.80
28253;DHT22;15515;45.588;5.276;2022-07-15T14:59:34;35.20;41.30
28253;DHT22;15515;45.588;5.276;2022-07-15T15:02:07;35.20;44.80
28253;DHT22;15515;45.588;5.276;2022-07-15T15:04:36;35.10;42.90
28253;DHT22;15515;45.588;5.276;2022-07-15T15:07:03;35.00;42.80
28253;DHT22;15515;45.588;5.276;2022-07-15T15:09:31;34.90;43.20
28253;DHT22;15515;45.588;5.276;2022-07-15T15:11:58;34.80;42.80
28253;DHT22;15515;45.588;5.276;2022-07-15T15:14:27;34.70;42.70
28253;DHT22;15515;45.588;5.276;2022-07-15T15:16:54;34.50;42.60
28253;DHT22;15515;45.588;5.276;2022-07-15T15:19:27;34.40;41.60
28253;DHT22;15515;45.588;5.276;2022-07-15T15:21:54;34.30;45.20
28253;DHT22;15515;45.588;5.276;2022-07-15T15:24:22;34.10;42.10
28253;DHT22;15515;45.588;5.276;2022-07-15T15:26:50;34.00;41.60
28253;DHT22;15515;45.588;5.276;2022-07-15T15:29:19;34.00;41.90
28253;DHT22;15515;45.588;5.276;2022-07-15T15:31:46;33.90;40.70
28253;DHT22;15515;45.588;5.276;2022-07-15T15:34:14;33.80;40.70
28253;DHT22;15515;45.588;5.276;2022-07-15T15:36:41;33.80;41.80
28253;DHT22;15515;45.588;5.276;2022-07-15T15:39:10;33.80;41.50
28253;DHT22;15515;45.588;5.276;2022-07-15T15:41:37;33.70;40.60
28253;DHT22;15515;45.588;5.276;2022-07-15T15:44:04;33.70;41.60
28253;DHT22;15515;45.588;5.276;2022-07-15T15:46:31;33.70;41.60
28253;DHT22;15515;45.588;5.276;2022-07-15T15:48:58;33.60;40.30
28253;DHT22;15515;45.588;5.276;2022-07-15T15:51:26;33.60;41.00
28253;DHT22;15515;45.588;5.276;2022-07-15T15:53:53;33.60;41.00
28253;DHT22;15515;45.588;5.276;2022-07-15T15:56:20;33.50;41.20
28253;DHT22;15515;45.588;5.276;2022-07-15T15:58:49;33.40;40.90
28253;DHT22;15515;45.588;5.276;2022-07-15T16:01:16;33.40;40.00
28253;DHT22;15515;45.588;5.276;2022-07-15T16:03:43;33.30;40.90
28253;DHT22;15515;45.588;5.276;2022-07-15T16:06:10;33.20;39.70
28253;DHT22;15515;45.588;5.276;2022-07-15T16:08:37;33.20;40.70
28253;DHT22;15515;45.588;5.276;2022-07-15T16:11:04;33.20;40.40
28253;DHT22;15515;45.588;5.276;2022-07-15T16:13:31;33.10;40.30
28253;DHT22;15515;45.588;5.276;2022-07-15T16:15:58;33.10;39.90
28253;DHT22;15515;45.588;5.276;2022-07-15T16:18:25;33.10;40.40
28253;DHT22;15515;45.588;5.276;2022-07-15T16:20:53;33.10;40.40
28253;DHT22;15515;45.588;5.276;2022-07-15T16:23:20;33.10;40.50
28253;DHT22;15515;45.588;5.276;2022-07-15T16:25:47;33.10;40.70
28253;DHT22;15515;45.588;5.276;2022-07-15T16:28:14;33.10;40.70
28253;DHT22;15515;45.588;5.276;2022-07-15T16:30:44;33.00;40.90
28253;DHT22;15515;45.588;5.276;2022-07-15T16:33:12;33.00;41.00
28253;DHT22;15515;45.588;5.276;2022-07-15T16:35:39;33.00;41.40
28253;DHT22;15515;45.588;5.276;2022-07-15T16:38:07;33.00;41.00
28253;DHT22;15515;45.588;5.276;2022-07-15T16:40:37;32.80;47.20
28253;DHT22;15515;45.588;5.276;2022-07-15T16:43:05;32.70;42.00
28253;DHT22;15515;45.588;5.276;2022-07-15T16:45:33;32.70;40.50
28253;DHT22;15515;45.588;5.276;2022-07-15T16:48:00;32.60;40.40
28253;DHT22;15515;45.588;5.276;2022-07-15T16:50:28;32.60;41.10
28253;DHT22;15515;45.588;5.276;2022-07-15T16:52:55;32.60;41.60
28253;DHT22;15515;45.588;5.276;2022-07-15T16:55:22;32.50;40.90
28253;DHT22;15515;45.588;5.276;2022-07-15T16:57:50;32.40;41.20
28253;DHT22;15515;45.588;5.276;2022-07-15T17:00:17;32.40;40.60
28253;DHT22;15515;45.588;5.276;2022-07-15T17:02:49;32.40;41.70
28253;DHT22;15515;45.588;5.276;2022-07-15T17:05:16;32.30;41.40
28253;DHT22;15515;45.588;5.276;2022-07-15T17:07:44;32.30;41.00
28253;DHT22;15515;45.588;5.276;2022-07-15T17:10:11;32.30;41.40
28253;DHT22;15515;45.588;5.276;2022-07-15T17:12:38;32.30;41.50
28253;DHT22;15515;45.588;5.276;2022-07-15T17:15:05;32.10;41.90
28253;DHT22;15515;45.588;5.276;2022-07-15T17:17:33;32.10;42.80
28253;DHT22;15515;45.588;5.276;2022-07-15T17:20:02;32.10;42.80
28253;DHT22;15515;45.588;5.276;2022-07-15T17:22:29;32.00;42.70
28253;DHT22;15515;45.588;5.276;2022-07-15T17:24:56;32.00;43.00
28253;DHT22;15515;45.588;5.276;2022-07-15T17:27:23;31.90;43.30
28253;DHT22;15515;45.588;5.276;2022-07-15T17:29:51;31.80;43.40
28253;DHT22;15515;45.588;5.276;2022-07-15T17:32:18;31.80;43.70
28253;DHT22;15515;45.588;5.276;2022-07-15T17:34:45;31.80;43.90
28253;DHT22;15515;45.588;5.276;2022-07-15T17:37:13;31.70;44.10
28253;DHT22;15515;45.588;5.276;2022-07-15T17:39:41;31.80;44.00
28253;DHT22;15515;45.588;5.276;2022-07-15T17:42:08;31.80;43.70
28253;DHT22;15515;45.588;5.276;2022-07-15T17:44:37;31.70;43.70
28253;DHT22;15515;45.588;5.276;2022-07-15T17:47:05;31.70;43.70
28253;DHT22;15515;45.588;5.276;2022-07-15T17:49:32;31.70;44.80
28253;DHT22;15515;45.588;5.276;2022-07-15T17:51:59;31.70;44.30
28253;DHT22;15515;45.588;5.276;2022-07-15T17:54:26;31.60;43.60
28253;DHT22;15515;45.588;5.276;2022-07-15T17:56:54;31.60;44.40
28253;DHT22;15515;45.588;5.276;2022-07-15T17:59:21;31.50;44.00
28253;DHT22;15515;45.588;5.276;2022-07-15T18:01:48;31.50;43.90
28253;DHT22;15515;45.588;5.276;2022-07-15T18:04:15;31.50;44.70
28253;DHT22;15515;45.588;5.276;2022-07-15T18:06:47;31.40;44.40
28253;DHT22;15515;45.588;5.276;2022-07-15T18:09:16;31.30;43.50
28253;DHT22;15515;45.588;5.276;2022-07-15T18:11:44;31.30;45.70
28253;DHT22;15515;45.588;5.276;2022-07-15T18:14:11;31.20;47.10
28253;DHT22;15515;45.588;5.276;2022-07-15T18:16:39;31.20;46.90
28253;DHT22;15515;45.588;5.276;2022-07-15T18:19:06;31.10;47.20
28253;DHT22;15515;45.588;5.276;2022-07-15T18:21:40;31.00;47.50
28253;DHT22;15515;45.588;5.276;2022-07-15T18:24:08;30.90;45.90
28253;DHT22;15515;45.588;5.276;2022-07-15T18:26:36;30.90;48.50
28253;DHT22;15515;45.588;5.276;2022-07-15T18:29:05;30.80;46.90
28253;DHT22;15515;45.588;5.276;2022-07-15T18:31:33;30.80;46.90
28253;DHT22;15515;45.588;5.276;2022-07-15T18:34:00;30.70;48.30
28253;DHT22;15515;45.588;5.276;2022-07-15T18:36:29;30.60;47.70
28253;DHT22;15515;45.588;5.276;2022-07-15T18:38:57;30.60;49.40
28253;DHT22;15515;45.588;5.276;2022-07-15T18:41:24;30.60;48.80
28253;DHT22;15515;45.588;5.276;2022-07-15T18:43:52;30.60;46.80
28253;DHT22;15515;45.588;5.276;2022-07-15T18:46:19;30.50;48.70
28253;DHT22;15515;45.588;5.276;2022-07-15T18:48:46;30.40;46.80
28253;DHT22;15515;45.588;5.276;2022-07-15T18:51:13;30.30;49.10
28253;DHT22;15515;45.588;5.276;2022-07-15T18:53:41;30.30;49.40
28253;DHT22;15515;45.588;5.276;2022-07-15T18:56:08;30.20;48.90
28253;DHT22;15515;45.588;5.276;2022-07-15T18:58:37;30.20;50.20
28253;DHT22;15515;45.588;5.276;2022-07-15T19:01:04;30.10;49.20
28253;DHT22;15515;45.588;5.276;2022-07-15T19:03:31;30.10;50.10
28253;DHT22;15515;45.588;5.276;2022-07-15T19:05:59;30.00;49.50
28253;DHT22;15515;45.588;5.276;2022-07-15T19:08:26;29.90;48.50
28253;DHT22;15515;45.588;5.276;2022-07-15T19:10:53;30.00;49.80
28253;DHT22;15515;45.588;5.276;2022-07-15T19:13:21;29.80;48.60
28253;DHT22;15515;45.588;5.276;2022-07-15T19:15:49;29.80;48.90
28253;DHT22;15515;45.588;5.276;2022-07-15T19:18:16;29.80;49.60
28253;DHT22;15515;45.588;5.276;2022-07-15T19:20:44;29.70;48.10
28253;DHT22;15515;45.588;5.276;2022-07-15T19:23:11;29.70;48.90
28253;DHT22;15515;45.588;5.276;2022-07-15T19:25:38;29.70;48.00
28253;DHT22;15515;45.588;5.276;2022-07-15T19:28:07;29.60;48.00
28253;DHT22;15515;45.588;5.276;2022-07-15T19:30:34;29.50;47.00
28253;DHT22;15515;45.588;5.276;2022-07-15T19:33:01;29.50;48.60
28253;DHT22;15515;45.588;5.276;2022-07-15T19:35:30;29.40;48.60
28253;DHT22;15515;45.588;5.276;2022-07-15T19:37:57;29.40;48.20
28253;DHT22;15515;45.588;5.276;2022-07-15T19:40:24;29.30;49.10
28253;DHT22;15515;45.588;5.276;2022-07-15T19:42:51;29.30;47.90
28253;DHT22;15515;45.588;5.276;2022-07-15T19:45:18;29.20;49.00
28253;DHT22;15515;45.588;5.276;2022-07-15T19:47:47;29.20;48.40
28253;DHT22;15515;45.588;5.276;2022-07-15T19:50:15;29.20;48.70
28253;DHT22;15515;45.588;5.276;2022-07-15T19:52:42;29.10;48.70
28253;DHT22;15515;45.588;5.276;2022-07-15T19:55:09;29.10;48.70
28253;DHT22;15515;45.588;5.276;2022-07-15T19:57:36;29.00;48.00
28253;DHT22;15515;45.588;5.276;2022-07-15T20:00:06;29.00;48.80
28253;DHT22;15515;45.588;5.276;2022-07-15T20:02:45;28.90;48.80
28253;DHT22;15515;45.588;5.276;2022-07-15T20:05:13;28.90;48.90
28253;DHT22;15515;45.588;5.276;2022-07-15T20:07:43;28.90;49.30
28253;DHT22;15515;45.588;5.276;2022-07-15T20:10:10;28.80;48.90
28253;DHT22;15515;45.588;5.276;2022-07-15T20:12:37;28.80;50.10
28253;DHT22;15515;45.588;5.276;2022-07-15T20:15:06;28.70;47.70
28253;DHT22;15515;45.588;5.276;2022-07-15T20:17:33;28.80;49.90
28253;DHT22;15515;45.588;5.276;2022-07-15T20:20:00;28.80;49.50
28253;DHT22;15515;45.588;5.276;2022-07-15T20:22:28;28.80;50.60
28253;DHT22;15515;45.588;5.276;2022-07-15T20:24:55;28.80;50.00
28253;DHT22;15515;45.588;5.276;2022-07-15T20:27:22;28.70;51.20
28253;DHT22;15515;45.588;5.276;2022-07-15T20:29:50;28.70;50.30
28253;DHT22;15515;45.588;5.276;2022-07-15T20:32:17;28.70;50.60
28253;DHT22;15515;45.588;5.276;2022-07-15T20:34:44;28.60;51.50
28253;DHT22;15515;45.588;5.276;2022-07-15T20:37:11;28.50;50.90
28253;DHT22;15515;45.588;5.276;2022-07-15T20:39:38;28.50;52.00
28253;DHT22;15515;45.588;5.276;2022-07-15T20:42:05;28.40;54.50
28253;DHT22;15515;45.588;5.276;2022-07-15T20:44:32;28.40;54.20
28253;DHT22;15515;45.588;5.276;2022-07-15T20:46:59;28.40;52.80
28253;DHT22;15515;45.588;5.276;2022-07-15T20:49:27;28.30;52.10
28253;DHT22;15515;45.588;5.276;2022-07-15T20:51:55;28.20;52.00
28253;DHT22;15515;45.588;5.276;2022-07-15T20:54:22;28.20;52.50
28253;DHT22;15515;45.588;5.276;2022-07-15T20:56:51;28.20;51.70
